sensor_id;sensor_type;location;lat;lon;timestamp;pressure;altitude;pressure_sealevel;temperature;humidity
71795;BME280;59641;45.188;5.712;2023-06-26T00:02:08;99357.84;;;27.65;40.69
71795;BME280;59641;45.188;5.712;2023-06-26T00:04:34;99351.06;;;27.62;40.53
71795;BME280;59641;45.188;5.712;2023-06-26T00:07:01;99351.38;;;27.61;40.98
71795;BME280;59641;45.188;5.712;2023-06-26T00:09:26;99358.38;;;27.58;41.04
71795;BME280;59641;45.188;5.712;2023-06-26T00:11:51;99359.50;;;27.57;40.92
71795;BME280;59641;45.188;5.712;2023-06-26T00:14:17;99353.06;;;27.53;41.16
71795;BME280;59641;45.188;5.712;2023-06-26T00:16:49;99357.75;;;27.53;41.21
71795;BME280;59641;45.188;5.712;2023-06-26T00:19:17;99360.84;;;27.51;41.33
71795;BME280;59641;45.188;5.712;2023-06-26T00:21:43;99361.19;;;27.50;41.10
71795;BME280;59641;45.188;5.712;2023-06-26T00:24:16;99363.94;;;27.50;41.05
71795;BME280;59641;45.188;5.712;2023-06-26T00:26:42;99365.06;;;27.49;41.56
71795;BME280;59641;45.188;5.712;2023-06-26T00:29:08;99368.66;;;27.49;41.43
71795;BME280;59641;45.188;5.712;2023-06-26T00:31:33;99371.72;;;27.48;41.49
71795;BME280;59641;45.188;5.712;2023-06-26T00:34:00;99363.78;;;27.46;41.56
71795;BME280;59641;45.188;5.712;2023-06-26T00:36:25;99357.34;;;27.42;41.84
71795;BME280;59641;45.188;5.712;2023-06-26T00:38:51;99366.75;;;27.41;41.34
71795;BME280;59641;45.188;5.712;2023-06-26T00:41:17;99367.06;;;27.39;41.65
71795;BME280;59641;45.188;5.712;2023-06-26T00:43:42;99370.97;;;27.38;41.88
71795;BME280;59641;45.188;5.712;2023-06-26T00:46:09;99369.00;;;27.39;41.71
71795;BME280;59641;45.188;5.712;2023-06-26T00:48:36;99368.53;;;27.37;41.97
71795;BME280;59641;45.188;5.712;2023-06-26T00:51:02;99364.16;;;27.36;42.20
71795;BME280;59641;45.188;5.712;2023-06-26T00:53:27;99372.44;;;27.36;42.40
71795;BME280;59641;45.188;5.712;2023-06-26T00:55:53;99371.28;;;27.37;41.83
71795;BME280;59641;45.188;5.712;2023-06-26T00:58:21;99365.31;;;27.35;42.29
71795;BME280;59641;45.188;5.712;2023-06-26T01:00:48;99367.91;;;27.31;42.60
71795;BME280;59641;45.188;5.712;2023-06-26T01:03:14;99371.00;;;27.30;42.80
71795;BME280;59641;45.188;5.712;2023-06-26T01:05:40;99363.41;;;27.27;42.68
71795;BME280;59641;45.188;5.712;2023-06-26T01:08:05;99356.28;;;27.26;43.03
71795;BME280;59641;45.188;5.712;2023-06-26T01:10:30;99358.25;;;27.25;42.92
71795;BME280;59641;45.188;5.712;2023-06-26T01:12:57;99356.28;;;27.26;42.86
71795;BME280;59641;45.188;5.712;2023-06-26T01:15:22;99367.31;;;27.26;42.94
71795;BME280;59641;45.188;5.712;2023-06-26T01:17:49;99355.81;;;27.24;42.56
71795;BME280;59641;45.188;5.712;2023-06-26T01:20:15;99354.53;;;27.21;42.59
71795;BME280;59641;45.188;5.712;2023-06-26T01:22:48;99352.09;;;27.19;42.84
71795;BME280;59641;45.188;5.712;2023-06-26T01:27:50;99360.19;;;27.16;43.16
71795;BME280;59641;45.188;5.712;2023-06-26T01:30:19;99361.31;;;27.15;42.92
71795;BME280;59641;45.188;5.712;2023-06-26T01:32:45;99358.56;;;27.15;42.46
71795;BME280;59641;45.188;5.712;2023-06-26T01:35:11;99354.69;;;27.16;42.24
71795;BME280;59641;45.188;5.712;2023-06-26T01:37:37;99364.41;;;27.13;42.36
71795;BME280;59641;45.188;5.712;2023-06-26T01:40:02;99361.19;;;27.11;42.83
71795;BME280;59641;45.188;5.712;2023-06-26T01:42:31;99363.94;;;27.11;42.68
71795;BME280;59641;45.188;5.712;2023-06-26T01:44:56;99364.13;;;27.06;42.92
71795;BME280;59641;45.188;5.712;2023-06-26T01:47:25;99363.16;;;27.02;42.73
71795;BME280;59641;45.188;5.712;2023-06-26T01:52:29;99371.13;;;26.95;42.95
71795;BME280;59641;45.188;5.712;2023-06-26T01:57:31;99371.97;;;26.87;43.33
71795;BME280;59641;45.188;5.712;2023-06-26T01:59:57;99371.00;;;26.83;43.57
71795;BME280;59641;45.188;5.712;2023-06-26T02:02:24;99377.63;;;26.82;43.88
71795;BME280;59641;45.188;5.712;2023-06-26T02:04:50;99370.50;;;26.81;44.00
71795;BME280;59641;45.188;5.712;2023-06-26T02:07:15;99383.47;;;26.80;43.46
71795;BME280;59641;45.188;5.712;2023-06-26T02:09:41;99382.19;;;26.77;43.42
71795;BME280;59641;45.188;5.712;2023-06-26T02:12:06;99384.63;;;26.70;43.89
71795;BME280;59641;45.188;5.712;2023-06-26T02:14:32;99382.84;;;26.66;44.08
71795;BME280;59641;45.188;5.712;2023-06-26T02:16:58;99385.78;;;26.61;44.42
71795;BME280;59641;45.188;5.712;2023-06-26T02:19:25;99383.34;;;26.59;44.48
71795;BME280;59641;45.188;5.712;2023-06-26T02:21:53;99377.03;;;26.59;44.79
71795;BME280;59641;45.188;5.712;2023-06-26T02:24:18;99382.53;;;26.59;44.62
71795;BME280;59641;45.188;5.712;2023-06-26T02:26:43;99381.38;;;26.60;44.54
71795;BME280;59641;45.188;5.712;2023-06-26T02:29:09;99389.66;;;26.60;44.49
71795;BME280;59641;45.188;5.712;2023-06-26T02:31:34;99377.53;;;26.61;44.09
71795;BME280;59641;45.188;5.712;2023-06-26T02:34:00;99381.88;;;26.62;44.35
71795;BME280;59641;45.188;5.712;2023-06-26T02:36:25;99382.69;;;26.62;44.21
71795;BME280;59641;45.188;5.712;2023-06-26T02:38:50;99389.34;;;26.61;44.46
71795;BME280;59641;45.188;5.712;2023-06-26T02:41:16;99390.94;;;26.62;44.33
71795;BME280;59641;45.188;5.712;2023-06-26T02:43:41;99390.94;;;26.62;44.60
71795;BME280;59641;45.188;5.712;2023-06-26T02:46:06;99393.38;;;26.64;44.52
71795;BME280;59641;45.188;5.712;2023-06-26T02:48:31;99390.13;;;26.62;44.59
71795;BME280;59641;45.188;5.712;2023-06-26T02:50:57;99390.13;;;26.62;44.35
71795;BME280;59641;45.188;5.712;2023-06-26T02:53:22;99390.44;;;26.60;44.80
71795;BME280;59641;45.188;5.712;2023-06-26T02:55:48;99390.63;;;26.55;44.53
71795;BME280;59641;45.188;5.712;2023-06-26T02:58:13;99385.75;;;26.52;44.32
71795;BME280;59641;45.188;5.712;2023-06-26T03:00:38;99390.28;;;26.48;44.66
71795;BME280;59641;45.188;5.712;2023-06-26T03:03:07;99385.28;;;26.41;44.52
71795;BME280;59641;45.188;5.712;2023-06-26T03:05:32;99396.44;;;26.36;44.47
71795;BME280;59641;45.188;5.712;2023-06-26T03:07:58;99396.28;;;26.32;44.63
71795;BME280;59641;45.188;5.712;2023-06-26T03:10:23;99395.31;;;26.28;44.71
71795;BME280;59641;45.188;5.712;2023-06-26T03:12:48;99397.56;;;26.26;44.85
71795;BME280;59641;45.188;5.712;2023-06-26T03:15:14;99394.34;;;26.24;45.10
71795;BME280;59641;45.188;5.712;2023-06-26T03:17:39;99394.34;;;26.24;44.62
71795;BME280;59641;45.188;5.712;2023-06-26T03:20:05;99397.09;;;26.24;44.83
71795;BME280;59641;45.188;5.712;2023-06-26T03:22:32;99397.72;;;26.21;45.26
71795;BME280;59641;45.188;5.712;2023-06-26T03:24:58;99395.81;;;26.22;44.98
71795;BME280;59641;45.188;5.712;2023-06-26T03:27:23;99400.47;;;26.21;45.31
71795;BME280;59641;45.188;5.712;2023-06-26T03:29:48;99397.25;;;26.19;45.45
71795;BME280;59641;45.188;5.712;2023-06-26T03:32:14;99388.84;;;26.16;45.76
71795;BME280;59641;45.188;5.712;2023-06-26T03:34:39;99395.94;;;26.17;45.39
71795;BME280;59641;45.188;5.712;2023-06-26T03:37:05;99401.78;;;26.15;45.65
71795;BME280;59641;45.188;5.712;2023-06-26T03:39:30;99397.41;;;26.14;45.63
71795;BME280;59641;45.188;5.712;2023-06-26T03:41:55;99403.72;;;26.14;45.42
71795;BME280;59641;45.188;5.712;2023-06-26T03:44:25;99398.22;;;26.14;45.65
71795;BME280;59641;45.188;5.712;2023-06-26T03:46:50;99400.50;;;26.12;45.58
71795;BME280;59641;45.188;5.712;2023-06-26T03:49:16;99400.50;;;26.12;45.84
71795;BME280;59641;45.188;5.712;2023-06-26T03:51:41;99402.09;;;26.13;45.70
71795;BME280;59641;45.188;5.712;2023-06-26T03:54:06;99403.25;;;26.12;46.02
71795;BME280;59641;45.188;5.712;2023-06-26T03:56:32;99407.59;;;26.13;45.36
71795;BME280;59641;45.188;5.712;2023-06-26T03:58:57;99415.69;;;26.10;45.67
71795;BME280;59641;45.188;5.712;2023-06-26T04:01:23;99421.50;;;26.08;45.63
71795;BME280;59641;45.188;5.712;2023-06-26T04:03:48;99421.31;;;26.05;45.60
71795;BME280;59641;45.188;5.712;2023-06-26T04:06:13;99424.06;;;26.05;45.45
71795;BME280;59641;45.188;5.712;2023-06-26T04:08:39;99421.81;;;25.98;45.56
71795;BME280;59641;45.188;5.712;2023-06-26T04:11:04;99426.03;;;25.96;45.71
71795;BME280;59641;45.188;5.712;2023-06-26T04:13:29;99433.59;;;25.90;46.04
71795;BME280;59641;45.188;5.712;2023-06-26T04:15:55;99433.59;;;25.90;46.03
71795;BME280;59641;45.188;5.712;2023-06-26T04:18:20;99434.44;;;25.90;45.95
71795;BME280;59641;45.188;5.712;2023-06-26T04:21:08;99435.22;;;25.91;45.76
71795;BME280;59641;45.188;5.712;2023-06-26T04:23:34;99444.09;;;25.88;46.04
71795;BME280;59641;45.188;5.712;2023-06-26T04:26:00;99440.88;;;25.86;46.23
71795;BME280;59641;45.188;5.712;2023-06-26T04:28:27;99444.09;;;25.88;46.17
71795;BME280;59641;45.188;5.712;2023-06-26T04:30:52;99438.28;;;25.89;46.47
71795;BME280;59641;45.188;5.712;2023-06-26T04:33:18;99442.34;;;25.92;46.25
71795;BME280;59641;45.188;5.712;2023-06-26T04:35:44;99448.63;;;25.92;46.15
71795;BME280;59641;45.188;5.712;2023-06-26T04:38:13;99452.22;;;25.93;46.20
71795;BME280;59641;45.188;5.712;2023-06-26T04:40:39;99446.38;;;25.95;46.34
71795;BME280;59641;45.188;5.712;2023-06-26T04:43:04;99443.63;;;25.95;46.32
71795;BME280;59641;45.188;5.712;2023-06-26T04:45:30;99449.94;;;25.95;46.46
71795;BME280;59641;45.188;5.712;2023-06-26T04:47:55;99455.13;;;25.97;46.43
71795;BME280;59641;45.188;5.712;2023-06-26T04:50:22;99450.78;;;25.96;46.31
71795;BME280;59641;45.188;5.712;2023-06-26T04:52:47;99453.97;;;25.98;46.16
71795;BME280;59641;45.188;5.712;2023-06-26T04:55:12;99454.31;;;25.96;46.22
71795;BME280;59641;45.188;5.712;2023-06-26T04:57:38;99456.25;;;25.96;46.00
71795;BME280;59641;45.188;5.712;2023-06-26T05:00:03;99451.06;;;25.94;46.05
71795;BME280;59641;45.188;5.712;2023-06-26T05:02:35;99447.53;;;25.93;46.19
71795;BME280;59641;45.188;5.712;2023-06-26T05:05:00;99446.72;;;25.93;46.21
71795;BME280;59641;45.188;5.712;2023-06-26T05:07:25;99455.44;;;25.95;46.01
71795;BME280;59641;45.188;5.712;2023-06-26T05:09:51;99455.13;;;25.97;46.07
71795;BME280;59641;45.188;5.712;2023-06-26T05:12:16;99444.94;;;25.97;46.14
71795;BME280;59641;45.188;5.712;2023-06-26T05:14:41;99449.63;;;25.97;46.07
71795;BME280;59641;45.188;5.712;2023-06-26T05:17:06;99454.81;;;25.98;46.21
71795;BME280;59641;45.188;5.712;2023-06-26T05:19:32;99455.31;;;26.00;45.95
71795;BME280;59641;45.188;5.712;2023-06-26T05:21:58;99451.41;;;26.01;46.07
71795;BME280;59641;45.188;5.712;2023-06-26T05:24:24;99451.91;;;26.03;45.91
71795;BME280;59641;45.188;5.712;2023-06-26T05:26:50;99456.25;;;26.04;45.83
71795;BME280;59641;45.188;5.712;2023-06-26T05:29:16;99462.56;;;26.05;45.97
71795;BME280;59641;45.188;5.712;2023-06-26T05:31:42;99453.03;;;26.02;46.22
71795;BME280;59641;45.188;5.712;2023-06-26T05:34:10;99457.06;;;26.05;46.07
71795;BME280;59641;45.188;5.712;2023-06-26T05:36:36;99455.97;;;26.06;46.08
71795;BME280;59641;45.188;5.712;2023-06-26T05:39:02;99452.06;;;26.07;46.45
71795;BME280;59641;45.188;5.712;2023-06-26T05:41:28;99443.19;;;26.10;46.38
71795;BME280;59641;45.188;5.712;2023-06-26T05:43:53;99453.22;;;26.14;46.58
71795;BME280;59641;45.188;5.712;2023-06-26T05:46:19;99447.88;;;26.18;46.32
71795;BME280;59641;45.188;5.712;2023-06-26T05:48:45;99451.13;;;26.20;46.63
71795;BME280;59641;45.188;5.712;2023-06-26T05:51:10;99451.28;;;26.24;45.97
71795;BME280;59641;45.188;5.712;2023-06-26T05:53:36;99448.53;;;26.24;46.30
71795;BME280;59641;45.188;5.712;2023-06-26T05:56:01;99444.97;;;26.23;46.16
71795;BME280;59641;45.188;5.712;2023-06-26T05:58:27;99453.56;;;26.22;46.17
71795;BME280;59641;45.188;5.712;2023-06-26T06:00:53;99446.13;;;26.22;46.55
71795;BME280;59641;45.188;5.712;2023-06-26T06:03:18;99431.06;;;26.20;46.32
71795;BME280;59641;45.188;5.712;2023-06-26T06:05:43;99437.53;;;26.24;46.35
71795;BME280;59641;45.188;5.712;2023-06-26T06:08:09;99441.91;;;26.25;46.26
71795;BME280;59641;45.188;5.712;2023-06-26T06:10:34;99437.22;;;26.25;46.36
71795;BME280;59641;45.188;5.712;2023-06-26T06:13:00;99439.66;;;26.27;46.49
71795;BME280;59641;45.188;5.712;2023-06-26T06:15:25;99433.81;;;26.28;46.26
71795;BME280;59641;45.188;5.712;2023-06-26T06:17:51;99433.19;;;26.31;46.07
71795;BME280;59641;45.188;5.712;2023-06-26T06:20:17;99437.22;;;26.34;46.25
71795;BME280;59641;45.188;5.712;2023-06-26T06:22:45;99433.66;;;26.33;46.40
71795;BME280;59641;45.188;5.712;2023-06-26T06:25:10;99426.69;;;26.36;46.47
71795;BME280;59641;45.188;5.712;2023-06-26T06:27:35;99435.44;;;26.38;46.04
71795;BME280;59641;45.188;5.712;2023-06-26T06:30:01;99436.25;;;26.39;46.40
71795;BME280;59641;45.188;5.712;2023-06-26T06:32:26;99439.47;;;26.41;46.39
71795;BME280;59641;45.188;5.712;2023-06-26T06:34:51;99435.25;;;26.43;46.24
71795;BME280;59641;45.188;5.712;2023-06-26T06:37:17;99429.75;;;26.43;46.30
71795;BME280;59641;45.188;5.712;2023-06-26T06:39:42;99434.94;;;26.45;46.04
71795;BME280;59641;45.188;5.712;2023-06-26T06:42:07;99429.44;;;26.45;46.52
71795;BME280;59641;45.188;5.712;2023-06-26T06:44:33;99432.69;;;26.47;46.07
71795;BME280;59641;45.188;5.712;2023-06-26T06:46:58;99431.22;;;26.49;46.04
71795;BME280;59641;45.188;5.712;2023-06-26T06:49:24;99430.91;;;26.51;45.99
71795;BME280;59641;45.188;5.712;2023-06-26T06:51:49;99433.84;;;26.54;45.85
71795;BME280;59641;45.188;5.712;2023-06-26T06:54:16;99433.53;;;26.56;46.13
71795;BME280;59641;45.188;5.712;2023-06-26T06:56:42;99429.31;;;26.59;46.05
71795;BME280;59641;45.188;5.712;2023-06-26T06:59:07;99424.63;;;26.59;46.18
71795;BME280;59641;45.188;5.712;2023-06-26T07:01:32;99423.97;;;26.62;46.26
71795;BME280;59641;45.188;5.712;2023-06-26T07:03:58;99429.94;;;26.64;46.18
71795;BME280;59641;45.188;5.712;2023-06-26T07:06:23;99422.50;;;26.65;45.95
71795;BME280;59641;45.188;5.712;2023-06-26T07:08:48;99430.44;;;26.66;45.99
71795;BME280;59641;45.188;5.712;2023-06-26T07:11:15;99427.84;;;26.70;45.65
71795;BME280;59641;45.188;5.712;2023-06-26T07:13:40;99431.25;;;26.67;45.37
71795;BME280;59641;45.188;5.712;2023-06-26T07:16:05;99431.25;;;26.67;45.42
71795;BME280;59641;45.188;5.712;2023-06-26T07:18:30;99437.91;;;26.66;45.30
71795;BME280;59641;45.188;5.712;2023-06-26T07:20:56;99432.03;;;26.67;44.95
71795;BME280;59641;45.188;5.712;2023-06-26T07:23:21;99426.88;;;26.66;44.75
71795;BME280;59641;45.188;5.712;2023-06-26T07:25:47;99427.69;;;26.66;44.90
71795;BME280;59641;45.188;5.712;2023-06-26T07:28:12;99422.66;;;26.68;44.80
71795;BME280;59641;45.188;5.712;2023-06-26T07:30:38;99424.75;;;26.71;44.57
71795;BME280;59641;45.188;5.712;2023-06-26T07:33:03;99417.00;;;26.73;45.02
71795;BME280;59641;45.188;5.712;2023-06-26T07:35:29;99428.63;;;26.79;44.99
71795;BME280;59641;45.188;5.712;2023-06-26T07:37:54;99426.72;;;26.80;44.87
71795;BME280;59641;45.188;5.712;2023-06-26T07:40:20;99425.06;;;26.78;44.90
71795;BME280;59641;45.188;5.712;2023-06-26T07:42:45;99413.56;;;26.76;45.28
71795;BME280;59641;45.188;5.712;2023-06-26T07:45:11;99421.34;;;26.83;44.99
71795;BME280;59641;45.188;5.712;2023-06-26T07:47:40;99424.28;;;26.87;45.23
71795;BME280;59641;45.188;5.712;2023-06-26T07:50:06;99424.41;;;26.90;45.08
71795;BME280;59641;45.188;5.712;2023-06-26T07:52:31;99411.63;;;26.94;44.50
71795;BME280;59641;45.188;5.712;2023-06-26T07:54:57;99408.06;;;26.94;44.44
71795;BME280;59641;45.188;5.712;2023-06-26T07:57:22;99412.91;;;26.97;44.50
71795;BME280;59641;45.188;5.712;2023-06-26T07:59:48;99407.53;;;27.01;44.72
71795;BME280;59641;45.188;5.712;2023-06-26T08:02:13;99401.84;;;27.06;44.82
71795;BME280;59641;45.188;5.712;2023-06-26T08:04:38;99407.50;;;27.09;44.65
71795;BME280;59641;45.188;5.712;2023-06-26T08:07:04;99413.16;;;27.13;44.67
71795;BME280;59641;45.188;5.712;2023-06-26T08:09:30;99407.00;;;27.16;44.81
71795;BME280;59641;45.188;5.712;2023-06-26T08:11:56;99406.06;;;27.21;44.51
71795;BME280;59641;45.188;5.712;2023-06-26T08:14:22;99410.22;;;27.27;44.65
71795;BME280;59641;45.188;5.712;2023-06-26T08:16:48;99412.66;;;27.28;44.79
71795;BME280;59641;45.188;5.712;2023-06-26T08:19:14;99409.25;;;27.31;44.75
71795;BME280;59641;45.188;5.712;2023-06-26T08:21:41;99416.53;;;27.36;45.26
71795;BME280;59641;45.188;5.712;2023-06-26T08:24:07;99414.72;;;27.40;44.71
71795;BME280;59641;45.188;5.712;2023-06-26T08:26:34;99416.81;;;27.43;44.79
71795;BME280;59641;45.188;5.712;2023-06-26T08:28:59;99409.84;;;27.46;44.48
71795;BME280;59641;45.188;5.712;2023-06-26T08:31:24;99413.53;;;27.50;44.54
71795;BME280;59641;45.188;5.712;2023-06-26T08:33:50;99400.38;;;27.55;44.49
71795;BME280;59641;45.188;5.712;2023-06-26T08:36:15;99411.22;;;27.60;44.78
71795;BME280;59641;45.188;5.712;2023-06-26T08:38:40;99399.19;;;27.65;44.88
71795;BME280;59641;45.188;5.712;2023-06-26T08:41:09;99397.88;;;27.71;44.92
71795;BME280;59641;45.188;5.712;2023-06-26T08:43:35;99387.44;;;27.77;44.65
71795;BME280;59641;45.188;5.712;2023-06-26T08:46:02;99392.13;;;27.85;44.88
71795;BME280;59641;45.188;5.712;2023-06-26T08:48:29;99395.50;;;27.91;44.94
71795;BME280;59641;45.188;5.712;2023-06-26T08:50:57;99386.22;;;27.95;44.76
71795;BME280;59641;45.188;5.712;2023-06-26T08:53:29;99385.66;;;28.02;44.89
71795;BME280;59641;45.188;5.712;2023-06-26T08:55:57;99385.13;;;28.09;45.13
71795;BME280;59641;45.188;5.712;2023-06-26T08:58:23;99376.00;;;28.17;45.18
71795;BME280;59641;45.188;5.712;2023-06-26T09:00:48;99376.94;;;28.21;45.13
71795;BME280;59641;45.188;5.712;2023-06-26T09:03:15;99378.34;;;28.27;44.96
71795;BME280;59641;45.188;5.712;2023-06-26T09:05:40;99385.25;;;28.33;44.81
71795;BME280;59641;45.188;5.712;2023-06-26T09:08:07;99378.41;;;28.39;44.82
71795;BME280;59641;45.188;5.712;2023-06-26T09:10:33;99370.41;;;28.46;44.83
71795;BME280;59641;45.188;5.712;2023-06-26T09:12:58;99381.72;;;28.54;44.81
71795;BME280;59641;45.188;5.712;2023-06-26T09:15:26;99365.88;;;28.63;44.71
71795;BME280;59641;45.188;5.712;2023-06-26T09:17:56;99374.03;;;28.72;44.51
71795;BME280;59641;45.188;5.712;2023-06-26T09:20:22;99374.66;;;28.77;44.37
71795;BME280;59641;45.188;5.712;2023-06-26T09:22:48;99376.03;;;28.83;44.94
71795;BME280;59641;45.188;5.712;2023-06-26T09:25:13;99369.63;;;28.92;44.49
71795;BME280;59641;45.188;5.712;2023-06-26T09:27:39;99374.56;;;28.98;44.73
71795;BME280;59641;45.188;5.712;2023-06-26T09:30:05;99371.25;;;29.05;44.67
71795;BME280;59641;45.188;5.712;2023-06-26T09:32:37;99376.56;;;29.10;44.38
71795;BME280;59641;45.188;5.712;2023-06-26T09:35:03;99372.13;;;29.18;44.12
71795;BME280;59641;45.188;5.712;2023-06-26T09:37:29;99367.97;;;29.24;44.42
71795;BME280;59641;45.188;5.712;2023-06-26T09:39:55;99371.66;;;29.28;44.19
71795;BME280;59641;45.188;5.712;2023-06-26T09:42:21;99371.41;;;29.33;44.29
71795;BME280;59641;45.188;5.712;2023-06-26T09:44:47;99368.41;;;29.38;43.90
71795;BME280;59641;45.188;5.712;2023-06-26T09:47:16;99361.84;;;29.43;44.26
71795;BME280;59641;45.188;5.712;2023-06-26T09:49:42;99363.91;;;29.46;43.87
71795;BME280;59641;45.188;5.712;2023-06-26T09:52:08;99358.97;;;29.51;43.92
71795;BME280;59641;45.188;5.712;2023-06-26T09:54:33;99361.50;;;29.57;43.88
71795;BME280;59641;45.188;5.712;2023-06-26T09:57:08;99354.94;;;29.61;44.20
71795;BME280;59641;45.188;5.712;2023-06-26T09:59:34;99364.13;;;29.65;44.07
71795;BME280;59641;45.188;5.712;2023-06-26T10:01:59;99357.97;;;29.68;43.85
71795;BME280;59641;45.188;5.712;2023-06-26T10:04:25;99362.44;;;29.73;43.63
71795;BME280;59641;45.188;5.712;2023-06-26T10:06:53;99357.34;;;29.75;44.07
71795;BME280;59641;45.188;5.712;2023-06-26T10:09:21;99355.97;;;29.81;43.69
71795;BME280;59641;45.188;5.712;2023-06-26T10:11:54;99358.50;;;29.86;44.33
71795;BME280;59641;45.188;5.712;2023-06-26T10:14:21;99351.13;;;29.90;43.96
71795;BME280;59641;45.188;5.712;2023-06-26T10:16:50;99346.94;;;29.97;44.04
71795;BME280;59641;45.188;5.712;2023-06-26T10:19:18;99348.66;;;30.01;43.55
71795;BME280;59641;45.188;5.712;2023-06-26T10:21:52;99349.22;;;30.07;43.67
71795;BME280;59641;45.188;5.712;2023-06-26T10:24:19;99353.72;;;30.11;43.78
71795;BME280;59641;45.188;5.712;2023-06-26T10:26:45;99350.69;;;30.17;43.37
71795;BME280;59641;45.188;5.712;2023-06-26T10:29:13;99356.78;;;30.22;43.61
71795;BME280;59641;45.188;5.712;2023-06-26T10:31:43;99357.22;;;30.24;43.08
71795;BME280;59641;45.188;5.712;2023-06-26T10:34:11;99354.94;;;30.26;43.28
71795;BME280;59641;45.188;5.712;2023-06-26T10:36:36;99349.50;;;30.30;43.01
71795;BME280;59641;45.188;5.712;2023-06-26T10:39:05;99355.16;;;30.33;43.27
71795;BME280;59641;45.188;5.712;2023-06-26T10:41:36;99345.34;;;30.36;43.22
71795;BME280;59641;45.188;5.712;2023-06-26T10:44:07;99343.44;;;30.40;42.94
71795;BME280;59641;45.188;5.712;2023-06-26T10:46:51;99355.19;;;30.49;42.60
71795;BME280;59641;45.188;5.712;2023-06-26T10:49:24;99344.22;;;30.53;42.61
71795;BME280;59641;45.188;5.712;2023-06-26T10:51:53;99347.97;;;30.61;43.21
71795;BME280;59641;45.188;5.712;2023-06-26T10:54:22;99336.28;;;30.67;42.64
71795;BME280;59641;45.188;5.712;2023-06-26T10:56:49;99347.09;;;30.72;42.83
71795;BME280;59641;45.188;5.712;2023-06-26T10:59:19;99342.47;;;30.76;42.59
71795;BME280;59641;45.188;5.712;2023-06-26T11:01:47;99346.13;;;30.81;42.52
71795;BME280;59641;45.188;5.712;2023-06-26T11:04:35;99336.06;;;30.88;42.24
71795;BME280;59641;45.188;5.712;2023-06-26T11:10:01;99345.91;;;31.02;42.20
71795;BME280;59641;45.188;5.712;2023-06-26T11:12:40;99343.66;;;31.07;41.78
71795;BME280;59641;45.188;5.712;2023-06-26T11:15:14;99339.91;;;31.15;42.32
71795;BME280;59641;45.188;5.712;2023-06-26T11:17:40;99351.53;;;31.21;41.87
71795;BME280;59641;45.188;5.712;2023-06-26T11:20:11;99347.41;;;31.31;41.77
71795;BME280;59641;45.188;5.712;2023-06-26T11:22:38;99340.88;;;31.39;41.52
71795;BME280;59641;45.188;5.712;2023-06-26T11:25:04;99336.34;;;31.47;41.02
71795;BME280;59641;45.188;5.712;2023-06-26T11:27:52;99336.94;;;31.56;41.02
71795;BME280;59641;45.188;5.712;2023-06-26T11:30:27;99335.03;;;31.60;41.06
71795;BME280;59641;45.188;5.712;2023-06-26T11:32:52;99335.56;;;31.66;40.33
71795;BME280;59641;45.188;5.712;2023-06-26T11:35:25;99338.84;;;31.71;40.83
71795;BME280;59641;45.188;5.712;2023-06-26T11:38:01;99331.50;;;31.79;40.47
71795;BME280;59641;45.188;5.712;2023-06-26T11:40:30;99330.50;;;31.87;40.31
71795;BME280;59641;45.188;5.712;2023-06-26T11:43:00;99330.28;;;31.96;40.14
71795;BME280;59641;45.188;5.712;2023-06-26T11:45:32;99322.91;;;32.03;40.20
71795;BME280;59641;45.188;5.712;2023-06-26T11:47:59;99331.84;;;32.13;40.36
71795;BME280;59641;45.188;5.712;2023-06-26T11:50:25;99332.06;;;32.23;40.06
71795;BME280;59641;45.188;5.712;2023-06-26T11:55:21;99327.63;;;32.42;39.33
71795;BME280;59641;45.188;5.712;2023-06-26T11:57:50;99334.88;;;32.46;39.39
71795;BME280;59641;45.188;5.712;2023-06-26T12:00:16;99328.63;;;32.50;39.01
71795;BME280;59641;45.188;5.712;2023-06-26T12:02:44;99314.00;;;32.53;38.99
71795;BME280;59641;45.188;5.712;2023-06-26T12:05:11;99322.81;;;32.58;39.28
71795;BME280;59641;45.188;5.712;2023-06-26T12:07:37;99313.38;;;32.63;38.89
71795;BME280;59641;45.188;5.712;2023-06-26T12:10:03;99322.16;;;32.65;38.80
71795;BME280;59641;45.188;5.712;2023-06-26T12:12:30;99314.69;;;32.69;38.38
71795;BME280;59641;45.188;5.712;2023-06-26T12:14:56;99311.97;;;32.73;38.14
71795;BME280;59641;45.188;5.712;2023-06-26T12:17:23;99310.38;;;32.72;38.07
71795;BME280;59641;45.188;5.712;2023-06-26T12:19:50;99326.28;;;32.75;38.40
71795;BME280;59641;45.188;5.712;2023-06-26T12:22:17;99314.06;;;32.79;38.21
71795;BME280;59641;45.188;5.712;2023-06-26T12:24:43;99312.56;;;32.85;38.17
71795;BME280;59641;45.188;5.712;2023-06-26T12:27:13;99309.91;;;32.93;37.98
71795;BME280;59641;45.188;5.712;2023-06-26T12:29:42;99309.19;;;32.96;38.16
71795;BME280;59641;45.188;5.712;2023-06-26T12:32:09;99318.75;;;32.98;37.56
71795;BME280;59641;45.188;5.712;2023-06-26T12:34:36;99316.78;;;32.99;37.63
71795;BME280;59641;45.188;5.712;2023-06-26T12:37:04;99315.97;;;32.98;37.17
71795;BME280;59641;45.188;5.712;2023-06-26T12:39:29;99309.63;;;32.98;37.11
71795;BME280;59641;45.188;5.712;2023-06-26T12:42:14;99305.66;;;32.99;37.61
71795;BME280;59641;45.188;5.712;2023-06-26T12:44:39;99307.69;;;33.02;37.94
71795;BME280;59641;45.188;5.712;2023-06-26T12:47:05;99299.03;;;33.03;37.28
71795;BME280;59641;45.188;5.712;2023-06-26T12:49:33;99304.13;;;33.01;37.24
71795;BME280;59641;45.188;5.712;2023-06-26T12:52:00;99298.56;;;33.01;37.16
71795;BME280;59641;45.188;5.712;2023-06-26T12:54:26;99302.53;;;33.00;37.26
71795;BME280;59641;45.188;5.712;2023-06-26T12:56:52;99291.34;;;32.97;37.12
71795;BME280;59641;45.188;5.712;2023-06-26T12:59:18;99301.56;;;32.93;37.35
71795;BME280;59641;45.188;5.712;2023-06-26T13:01:43;99292.31;;;32.85;36.92
71795;BME280;59641;45.188;5.712;2023-06-26T13:04:08;99303.84;;;32.83;37.12
71795;BME280;59641;45.188;5.712;2023-06-26T13:06:34;99298.94;;;32.77;37.37
71795;BME280;59641;45.188;5.712;2023-06-26T13:08:59;99298.50;;;32.75;37.77
71795;BME280;59641;45.188;5.712;2023-06-26T13:11:24;99296.09;;;32.73;37.79